Time;durP1;ratioP1;P1;durP2;ratioP2;P2;SDS_P1;SDS_P2;PMS_P1;PMS_P2;Temp;Humidity;BMP_temperature;BMP_pressure;BME280_temperature;BME280_humidity;BME280_pressure;Samples;Min_cycle;Max_cycle;Signal;HPM_P1;HPM_P2
2024/02/08 00:01:28;;;;;;;34.47;26.10;;;7.00;97.90;;;;;;4997988;28;20201;-82
2024/02/08 00:03:55;;;;;;;30.67;23.67;;;7.00;97.90;;;;;;4997754;28;20640;-83
2024/02/08 00:06:22;;;;;;;33.40;24.80;;;7.00;97.80;;;;;;4998387;28;20196;-82
2024/02/08 00:08:53;;;;;;;53.97;34.10;;;7.00;97.80;;;;;;4997945;28;20204;-84
2024/02/08 00:11:21;;;;;;;43.80;28.97;;;7.10;97.90;;;;;;4997765;28;20204;-82
2024/02/08 00:13:48;;;;;;;25.40;21.90;;;7.10;98.20;;;;;;4997517;28;20206;-82
2024/02/08 00:16:15;;;;;;;55.17;32.10;;;7.20;98.40;;;;;;4997573;28;20208;-82
2024/02/08 00:18:44;;;;;;;54.23;31.87;;;7.20;98.30;;;;;;4997703;28;20288;-82
2024/02/08 00:21:13;;;;;;;44.80;28.90;;;7.20;98.30;;;;;;4997816;28;20204;-83
2024/02/08 00:23:40;;;;;;;48.50;30.03;;;7.30;98.40;;;;;;5014047;28;20210;-83
2024/02/08 00:26:07;;;;;;;46.00;29.63;;;7.30;98.40;;;;;;4997826;28;20267;-82
2024/02/08 00:28:35;;;;;;;51.50;31.13;;;7.40;98.50;;;;;;4986737;28;20269;-83
2024/02/08 00:31:05;;;;;;;35.30;24.87;;;7.40;98.50;;;;;;4979343;28;20268;-83
2024/02/08 00:33:33;;;;;;;49.23;31.60;;;7.50;98.50;;;;;;5063279;28;20192;-83
2024/02/08 00:36:01;;;;;;;53.13;31.33;;;7.50;98.50;;;;;;5117497;28;20205;-83
2024/02/08 00:38:29;;;;;;;53.03;33.90;;;7.50;98.50;;;;;;5117389;28;20244;-83
2024/02/08 00:40:56;;;;;;;57.10;34.90;;;7.40;98.40;;;;;;5117230;28;20601;-83
2024/02/08 00:43:24;;;;;;;47.00;32.30;;;7.50;98.40;;;;;;5116845;28;20215;-82
2024/02/08 00:45:54;;;;;;;37.57;25.90;;;7.40;98.40;;;;;;5117142;28;20283;-83
2024/02/08 00:48:22;;;;;;;36.80;26.27;;;7.40;98.30;;;;;;5116758;28;20644;-83
2024/02/08 00:50:49;;;;;;;44.90;29.60;;;7.40;98.20;;;;;;5116462;28;20204;-82
2024/02/08 00:53:16;;;;;;;30.27;24.50;;;7.40;98.10;;;;;;5108339;28;20228;-82
2024/02/08 00:55:43;;;;;;;37.20;25.20;;;7.30;98.00;;;;;;5041567;28;20291;-82
2024/02/08 00:58:15;;;;;;;38.33;26.27;;;7.30;98.00;;;;;;5031750;28;20286;-83
2024/02/08 01:00:43;;;;;;;38.47;26.53;;;7.30;97.90;;;;;;5099926;28;20202;-82
2024/02/08 01:03:10;;;;;;;46.07;30.87;;;7.30;97.90;;;;;;5019852;28;20216;-82
2024/02/08 01:05:38;;;;;;;44.47;28.77;;;7.30;98.00;;;;;;5013031;28;20318;-83
2024/02/08 01:08:05;;;;;;;44.30;27.93;;;7.30;98.10;;;;;;4997009;28;20290;-82
2024/02/08 01:10:33;;;;;;;36.30;23.63;;;7.30;98.10;;;;;;5013137;28;20261;-83
2024/02/08 01:13:00;;;;;;;37.27;20.67;;;7.30;98.10;;;;;;4978183;28;20246;-82
2024/02/08 01:15:28;;;;;;;32.63;23.63;;;7.30;98.20;;;;;;4977529;28;20604;-82
2024/02/08 01:17:55;;;;;;;42.27;27.60;;;7.30;98.10;;;;;;4978382;28;20209;-83
2024/02/08 01:20:27;;;;;;;40.70;27.03;;;7.30;98.00;;;;;;4989121;28;20557;-82
2024/02/08 01:22:55;;;;;;;44.60;29.23;;;7.20;97.90;;;;;;5000449;28;20211;-82
2024/02/08 01:25:22;;;;;;;41.73;27.87;;;7.20;97.90;;;;;;5016968;28;20228;-83
2024/02/08 01:27:50;;;;;;;40.07;26.90;;;7.10;97.90;;;;;;5000040;28;20225;-82
2024/02/08 01:30:17;;;;;;;36.63;27.27;;;7.10;97.90;;;;;;5000447;28;20200;-83
2024/02/08 01:32:48;;;;;;;34.10;25.70;;;7.00;97.90;;;;;;5000489;28;20208;-83
2024/02/08 01:35:21;;;;;;;36.37;25.97;;;7.00;98.00;;;;;;5000419;28;20210;-83
2024/02/08 01:37:49;;;;;;;36.13;26.10;;;7.00;98.10;;;;;;5001056;28;20603;-82
2024/02/08 01:40:17;;;;;;;34.07;25.53;;;6.90;98.10;;;;;;5000987;28;20223;-83
2024/02/08 01:42:48;;;;;;;33.90;23.67;;;6.90;98.20;;;;;;5016897;28;20204;-82
2024/02/08 01:45:33;;;;;;;32.77;23.83;;;6.90;98.30;;;;;;5016840;28;20235;-82
2024/02/08 01:48:03;;;;;;;37.47;25.63;;;6.90;98.50;;;;;;5016325;28;20215;-83
2024/02/08 01:50:35;;;;;;;43.37;29.90;;;6.90;98.20;;;;;;5016589;28;20212;-82
2024/02/08 01:53:05;;;;;;;42.73;27.90;;;6.90;98.20;;;;;;5016442;28;20198;-82
2024/02/08 01:55:33;;;;;;;35.93;25.93;;;6.90;98.30;;;;;;5015970;28;20261;-82
2024/02/08 01:58:07;;;;;;;47.17;32.03;;;6.80;98.30;;;;;;5015388;28;20330;-83
2024/02/08 02:00:38;;;;;;;41.27;27.37;;;6.80;98.20;;;;;;5015495;28;20244;-82
2024/02/08 02:03:12;;;;;;;32.93;22.27;;;6.80;98.10;;;;;;5015494;28;20528;-82
2024/02/08 02:05:42;;;;;;;45.00;25.40;;;6.70;98.10;;;;;;5015444;28;20229;-83
2024/02/08 02:08:11;;;;;;;251.03;35.87;;;6.70;98.10;;;;;;4999078;28;20295;-83
2024/02/08 02:10:41;;;;;;;35.97;25.87;;;6.70;97.90;;;;;;4999676;28;20204;-82
2024/02/08 02:13:09;;;;;;;42.33;27.23;;;6.60;97.60;;;;;;4999331;28;20216;-82
2024/02/08 02:15:37;;;;;;;38.07;25.10;;;6.50;97.60;;;;;;4999518;28;20227;-82
2024/02/08 02:18:09;;;;;;;34.40;22.47;;;6.50;97.60;;;;;;5000357;28;20266;-83
2024/02/08 02:20:38;;;;;;;34.40;22.67;;;6.50;97.70;;;;;;4999425;28;20201;-83
2024/02/08 02:23:09;;;;;;;35.07;22.80;;;6.50;97.80;;;;;;5015580;28;20244;-82
2024/02/08 02:25:38;;;;;;;32.67;21.57;;;6.50;97.90;;;;;;4999106;28;20273;-82
2024/02/08 02:28:08;;;;;;;25.60;19.30;;;6.50;97.90;;;;;;5015355;28;20620;-83
2024/02/08 02:30:35;;;;;;;23.20;17.90;;;6.50;97.90;;;;;;4998417;28;20213;-83
2024/02/08 02:33:06;;;;;;;20.57;15.90;;;6.50;97.90;;;;;;4998565;28;20534;-83
2024/02/08 02:35:34;;;;;;;24.87;16.10;;;6.40;97.80;;;;;;4998106;28;20257;-83
2024/02/08 02:38:04;;;;;;;24.10;15.03;;;6.40;97.80;;;;;;4998387;28;20652;-82
2024/02/08 02:40:33;;;;;;;27.37;19.63;;;6.40;97.80;;;;;;4998599;28;20211;-82
2024/02/08 02:43:09;;;;;;;32.67;22.87;;;6.40;97.70;;;;;;4998584;28;20707;-83
2024/02/08 02:45:37;;;;;;;30.40;22.00;;;6.30;97.60;;;;;;4991822;28;20627;-82
2024/02/08 02:48:04;;;;;;;40.00;26.43;;;6.30;97.60;;;;;;4994789;28;20196;-82
2024/02/08 02:50:32;;;;;;;34.97;23.33;;;6.30;97.60;;;;;;4999107;28;20260;-83
2024/02/08 02:53:00;;;;;;;31.63;22.47;;;6.30;97.80;;;;;;5014231;28;20215;-83
2024/02/08 02:55:27;;;;;;;37.30;23.40;;;6.20;97.90;;;;;;4998050;28;20204;-82
2024/02/08 02:57:57;;;;;;;30.63;22.17;;;6.30;97.90;;;;;;5014057;28;20236;-82
2024/02/08 03:00:24;;;;;;;41.33;24.87;;;6.30;98.00;;;;;;4998063;28;20723;-82
2024/02/08 03:02:57;;;;;;;42.03;26.67;;;6.30;98.00;;;;;;5014041;28;20722;-83
2024/02/08 03:05:24;;;;;;;38.40;24.87;;;6.30;98.10;;;;;;5007309;28;20678;-83
2024/02/08 03:07:52;;;;;;;34.73;24.13;;;6.30;98.20;;;;;;5018051;28;20208;-83
2024/02/08 03:10:22;;;;;;;35.87;24.50;;;6.30;98.20;;;;;;5028658;28;20272;-83
2024/02/08 03:12:50;;;;;;;35.00;23.00;;;6.30;98.10;;;;;;5014313;28;20595;-83
2024/02/08 03:15:19;;;;;;;33.63;22.70;;;6.30;98.00;;;;;;5013914;28;20720;-83
2024/02/08 03:17:47;;;;;;;39.53;23.20;;;6.30;98.00;;;;;;4998304;28;20261;-82
2024/02/08 03:20:23;;;;;;;37.40;21.63;;;6.30;98.00;;;;;;4998404;28;20212;-82
2024/02/08 03:22:51;;;;;;;32.53;22.33;;;6.30;98.10;;;;;;5012848;28;20225;-83
2024/02/08 03:25:21;;;;;;;35.97;21.40;;;6.30;98.40;;;;;;4996281;28;20648;-83
2024/02/08 03:27:53;;;;;;;36.97;20.93;;;6.30;98.20;;;;;;4991660;28;20271;-82
2024/02/08 03:30:30;;;;;;;34.37;21.63;;;6.30;98.20;;;;;;4999550;28;20220;-83
2024/02/08 03:32:59;;;;;;;29.23;21.00;;;6.30;98.30;;;;;;4978530;28;20196;-82
2024/02/08 03:35:29;;;;;;;32.90;20.37;;;6.30;98.20;;;;;;4977999;28;20204;-83
2024/02/08 03:38:00;;;;;;;36.37;22.37;;;6.30;98.30;;;;;;4999057;28;20294;-82
2024/02/08 03:40:32;;;;;;;37.33;20.93;;;6.30;98.40;;;;;;5013668;28;20628;-82
2024/02/08 03:43:01;;;;;;;37.77;21.77;;;6.30;98.40;;;;;;4997262;28;20291;-83
2024/02/08 03:45:28;;;;;;;29.53;20.27;;;6.30;98.50;;;;;;5012967;28;20562;-83
2024/02/08 03:47:59;;;;;;;36.10;21.50;;;6.20;98.40;;;;;;5013415;28;20196;-83
2024/02/08 03:50:34;;;;;;;35.87;22.23;;;6.20;98.40;;;;;;5013366;28;20200;-82
2024/02/08 03:53:12;;;;;;;32.47;20.63;;;6.20;98.40;;;;;;4997235;28;20238;-82
2024/02/08 03:55:44;;;;;;;31.60;21.80;;;6.20;98.50;;;;;;5009640;28;20208;-83
2024/02/08 03:58:14;;;;;;;39.07;22.37;;;6.20;98.60;;;;;;4977833;28;20294;-83
2024/02/08 04:00:44;;;;;;;32.00;21.80;;;6.20;98.60;;;;;;4993213;28;20220;-82
2024/02/08 04:03:14;;;;;;;23.07;17.13;;;6.10;98.60;;;;;;4994147;28;20228;-83
2024/02/08 04:55:10;;;;;;;27.70;18.40;;;5.50;98.00;;;;;;5012799;28;20203;-84
2024/02/08 04:57:39;;;;;;;29.37;20.50;;;5.50;98.00;;;;;;4996615;28;20324;-83
2024/02/08 05:00:12;;;;;;;30.17;17.87;;;5.50;98.00;;;;;;4999153;28;20210;-83
2024/02/08 05:02:40;;;;;;;25.73;17.83;;;5.50;98.10;;;;;;5030915;28;20201;-83
2024/02/08 05:05:11;;;;;;;25.10;17.07;;;5.50;98.20;;;;;;5029278;28;20232;-83
2024/02/08 05:07:39;;;;;;;25.47;17.87;;;5.50;98.30;;;;;;5008675;28;20215;-83
2024/02/08 05:10:08;;;;;;;30.57;19.20;;;5.50;98.30;;;;;;5082958;28;20200;-83
2024/02/08 05:12:37;;;;;;;27.90;18.07;;;5.50;98.20;;;;;;4986616;28;20204;-83
2024/02/08 05:15:13;;;;;;;27.77;18.93;;;5.60;98.30;;;;;;4989475;28;20202;-83
2024/02/08 05:17:41;;;;;;;34.83;19.57;;;5.60;98.30;;;;;;5008801;28;20209;-83
2024/02/08 05:20:11;;;;;;;27.93;20.03;;;5.60;98.30;;;;;;4993028;28;20228;-83
2024/02/08 05:22:42;;;;;;;34.10;20.77;;;5.60;98.30;;;;;;5079493;28;20200;-83
2024/02/08 05:25:10;;;;;;;32.20;21.83;;;5.60;98.30;;;;;;5016755;28;20240;-83
2024/02/08 05:27:40;;;;;;;30.43;19.83;;;5.60;98.30;;;;;;5020351;28;20261;-84
2024/02/08 05:30:08;;;;;;;34.10;19.30;;;5.60;98.30;;;;;;5021518;28;20209;-83
2024/02/08 05:32:39;;;;;;;28.13;19.47;;;5.60;98.30;;;;;;5017393;28;20257;-83
2024/02/08 05:35:07;;;;;;;27.80;18.93;;;5.60;98.30;;;;;;4998372;28;20213;-83
2024/02/08 05:37:35;;;;;;;29.73;18.73;;;5.60;98.30;;;;;;5044241;28;20198;-83
2024/02/08 05:40:14;;;;;;;22.83;17.10;;;5.60;98.30;;;;;;4996113;28;20208;-83
2024/02/08 05:42:48;;;;;;;27.30;18.43;;;5.60;98.20;;;;;;5000777;28;20205;-83
2024/02/08 05:45:21;;;;;;;21.67;15.03;;;5.50;98.20;;;;;;5006117;28;20212;-83
2024/02/08 05:47:50;;;;;;;24.00;15.60;;;5.50;98.30;;;;;;5003777;28;20199;-83
2024/02/08 05:50:24;;;;;;;18.30;13.93;;;5.50;98.30;;;;;;5000214;28;20219;-83
2024/02/08 05:52:56;;;;;;;17.13;13.70;;;5.50;98.30;;;;;;4979459;28;20193;-83
2024/02/08 05:55:25;;;;;;;24.13;17.97;;;5.40;98.20;;;;;;4980085;28;20548;-83
2024/02/08 05:57:53;;;;;;;26.57;17.70;;;5.40;98.00;;;;;;4979675;28;20250;-83
2024/02/08 06:00:45;;;;;;;26.27;16.97;;;5.30;97.90;;;;;;4981086;28;20204;-83
2024/02/08 06:03:27;;;;;;;51.00;17.17;;;5.20;97.70;;;;;;4979604;28;20200;-83
2024/02/08 06:06:06;;;;;;;28.90;17.87;;;5.20;97.60;;;;;;4982746;28;20227;-83
2024/02/08 06:08:42;;;;;;;23.13;15.57;;;5.10;97.60;;;;;;4998907;28;20304;-82
2024/02/08 06:11:19;;;;;;;27.67;20.17;;;5.00;97.60;;;;;;4996151;28;20214;-83
2024/02/08 06:13:55;;;;;;;28.03;18.37;;;5.00;97.80;;;;;;5118237;28;20202;-82
2024/02/08 06:16:45;;;;;;;29.10;20.47;;;5.00;97.80;;;;;;5029885;28;20213;-83
2024/02/08 06:19:15;;;;;;;31.23;20.47;;;5.00;97.80;;;;;;5015371;28;20184;-83
2024/02/08 06:21:49;;;;;;;30.63;19.77;;;5.00;98.00;;;;;;4999753;28;20204;-82
2024/02/08 06:27:01;;;;;;;21.57;16.20;;;4.90;98.00;;;;;;5014702;28;20618;-82
2024/02/08 06:29:46;;;;;;;24.73;17.37;;;5.00;98.10;;;;;;5015153;28;20207;-83
2024/02/08 06:32:23;;;;;;;18.03;13.50;;;5.00;98.10;;;;;;5015302;28;20628;-83
2024/02/08 06:35:06;;;;;;;28.43;15.77;;;5.00;98.10;;;;;;4998685;28;20227;-83
2024/02/08 06:37:46;;;;;;;25.00;15.43;;;5.00;98.10;;;;;;4998997;28;20583;-83
2024/02/08 07:39:34;;;;;;;26.40;19.27;;;7.00;96.50;;;;;;4994820;28;20196;-83
2024/02/08 07:42:12;;;;;;;26.73;19.80;;;7.30;96.20;;;;;;4978384;28;20222;-83
2024/02/08 07:44:45;;;;;;;30.67;18.87;;;7.50;95.90;;;;;;4978725;28;20273;-83
2024/02/08 07:47:13;;;;;;;30.63;17.83;;;7.70;95.60;;;;;;4979107;28;20314;-83
2024/02/08 07:49:43;;;;;;;26.43;18.27;;;7.70;95.60;;;;;;4988588;28;20203;-83
2024/02/08 07:52:19;;;;;;;26.50;18.33;;;7.70;95.90;;;;;;5017560;28;20279;-83
2024/02/08 07:54:50;;;;;;;28.00;18.07;;;7.80;96.10;;;;;;5001232;28;20278;-83
2024/02/08 07:57:24;;;;;;;27.03;17.43;;;7.90;96.10;;;;;;5014442;28;20234;-83
2024/02/08 07:59:53;;;;;;;31.73;20.03;;;8.00;96.10;;;;;;5017435;28;20271;-83
2024/02/08 08:02:23;;;;;;;29.00;19.37;;;8.20;96.00;;;;;;5026018;28;20576;-83
2024/02/08 08:04:51;;;;;;;24.60;18.00;;;8.30;96.00;;;;;;4996148;28;20623;-83
2024/02/08 08:07:24;;;;;;;32.10;20.87;;;8.40;96.00;;;;;;4994648;28;20233;-83
2024/02/08 08:09:59;;;;;;;31.03;18.60;;;8.50;96.20;;;;;;4994063;28;20302;-82
2024/02/08 08:12:29;;;;;;;35.93;20.40;;;8.60;96.30;;;;;;4994989;28;20203;-82
2024/02/08 08:17:40;;;;;;;35.07;20.43;;;8.70;96.40;;;;;;5014600;28;20258;-82
2024/02/08 08:22:58;;;;;;;33.90;21.07;;;8.90;96.60;;;;;;5027673;28;20234;-82
2024/02/08 08:25:29;;;;;;;34.80;22.30;;;9.00;96.70;;;;;;4997799;28;20206;-82
2024/02/08 08:30:53;;;;;;;36.97;24.63;;;9.30;96.70;;;;;;5021127;28;20225;-83
2024/02/08 08:36:28;;;;;;;44.67;27.43;;;9.60;96.80;;;;;;5003170;28;20647;-83
2024/02/08 08:39:46;;;;;;;42.73;26.23;;;9.70;96.70;;;;;;4982095;28;20274;-81
2024/02/08 08:41:46;;;;;;;39.43;25.57;;;9.90;96.70;;;;;;4997784;28;20301;-82
2024/02/08 08:44:15;;;;;;;38.13;26.10;;;10.10;96.60;;;;;;5017432;28;20211;-81
2024/02/08 08:46:44;;;;;;;41.83;26.30;;;10.20;96.50;;;;;;5031668;28;20546;-81
2024/02/08 08:49:20;;;;;;;39.43;26.23;;;10.40;96.30;;;;;;5022078;28;20217;-80
2024/02/08 08:51:58;;;;;;;39.70;25.63;;;10.50;96.10;;;;;;5018419;28;20241;-81
2024/02/08 08:54:29;;;;;;;37.90;23.50;;;10.70;96.00;;;;;;5013371;28;20203;-81
2024/02/08 08:56:58;;;;;;;46.97;26.83;;;10.80;95.90;;;;;;5021677;28;20287;-81
2024/02/08 08:59:26;;;;;;;40.27;25.77;;;10.90;95.70;;;;;;5055549;28;20217;-81
2024/02/08 09:01:53;;;;;;;41.80;24.23;;;11.00;95.60;;;;;;5020317;28;20214;-80
2024/02/08 09:04:32;;;;;;;37.73;25.27;;;11.20;95.50;;;;;;5008401;28;20649;-80
2024/02/08 09:07:10;;;;;;;34.53;24.03;;;11.20;95.40;;;;;;4997956;28;20658;-80
2024/02/08 09:09:55;;;;;;;37.83;24.37;;;11.40;95.20;;;;;;5008913;28;20209;-80
2024/02/08 09:12:36;;;;;;;39.17;24.53;;;11.50;95.10;;;;;;4998699;28;20184;-80
2024/02/08 09:15:19;;;;;;;33.40;24.13;;;11.60;94.80;;;;;;4998126;28;20269;-80
2024/02/08 09:17:58;;;;;;;35.80;24.63;;;11.70;94.50;;;;;;5010600;28;20214;-80
2024/02/08 09:20:28;;;;;;;40.17;26.03;;;11.70;94.10;;;;;;5006537;28;20216;-80
2024/02/08 09:22:57;;;;;;;39.57;25.93;;;11.70;94.00;;;;;;5001782;28;20218;-80
2024/02/08 09:25:24;;;;;;;37.23;24.73;;;11.60;94.00;;;;;;5017241;28;20276;-80
2024/02/08 09:28:23;;;;;;;40.37;23.53;;;11.70;94.30;;;;;;5040602;28;20606;-80
2024/02/08 09:31:00;;;;;;;45.03;26.80;;;11.70;94.40;;;;;;5120425;28;20203;-80
2024/02/08 09:33:30;;;;;;;42.90;25.80;;;11.80;94.30;;;;;;5120572;28;20683;-80
2024/02/08 09:35:59;;;;;;;40.80;24.67;;;11.90;94.30;;;;;;5121019;28;20294;-80
2024/02/08 09:38:28;;;;;;;43.07;25.03;;;11.90;94.40;;;;;;5120251;28;20189;-80
2024/02/08 09:40:59;;;;;;;35.90;25.27;;;12.10;94.30;;;;;;5120340;28;20263;-80
2024/02/08 09:43:29;;;;;;;35.53;24.23;;;12.20;94.30;;;;;;5103160;28;20244;-80
2024/02/08 09:46:10;;;;;;;36.83;24.87;;;12.20;94.10;;;;;;5120945;28;20257;-80
2024/02/08 09:48:47;;;;;;;37.37;25.73;;;12.30;94.10;;;;;;5121381;28;20573;-80
2024/02/08 09:51:24;;;;;;;38.13;25.10;;;12.40;93.90;;;;;;5121103;28;20553;-80
2024/02/08 09:53:52;;;;;;;40.43;26.70;;;12.40;93.80;;;;;;5042484;28;20234;-80
2024/02/08 09:56:35;;;;;;;37.80;26.13;;;12.50;93.80;;;;;;5008743;28;20221;-80
2024/02/08 09:59:18;;;;;;;38.53;25.70;;;12.50;93.80;;;;;;5019374;28;20321;-80
2024/02/08 10:01:49;;;;;;;40.10;25.63;;;12.60;93.90;;;;;;5004447;28;20241;-81
2024/02/08 10:04:19;;;;;;;37.43;25.27;;;12.80;93.80;;;;;;5017512;28;20234;-81
2024/02/08 10:07:33;;;;;;;36.13;25.10;;;12.90;93.70;;;;;;5032450;28;20246;-81
2024/02/08 10:09:46;;;;;;;40.77;26.43;;;13.00;93.50;;;;;;5014454;28;20302;-81
2024/02/08 10:12:29;;;;;;;39.50;27.60;;;13.00;93.50;;;;;;5010173;28;20218;-81
2024/02/08 10:14:59;;;;;;;40.67;26.13;;;13.10;93.50;;;;;;5017520;28;20227;-81
2024/02/08 10:17:28;;;;;;;40.80;26.67;;;13.20;93.50;;;;;;5019603;28;20215;-81
2024/02/08 10:22:53;;;;;;;41.23;26.47;;;13.40;93.20;;;;;;5020748;28;20193;-81
2024/02/08 10:28:21;;;;;;;41.93;27.50;;;13.60;93.00;;;;;;5001360;28;20262;-81
2024/02/08 10:31:12;;;;;;;42.80;26.30;;;13.60;92.80;;;;;;4984950;28;20250;-81
2024/02/08 10:33:40;;;;;;;41.50;27.07;;;13.70;92.70;;;;;;4998015;28;20232;-81
2024/02/08 10:36:15;;;;;;;40.37;25.33;;;13.80;92.80;;;;;;4997281;28;20303;-81
2024/02/08 10:39:02;;;;;;;39.30;26.07;;;13.90;92.60;;;;;;4990388;28;20218;-81
2024/02/08 10:41:57;;;;;;;36.80;24.50;;;13.90;92.50;;;;;;5000167;28;20239;-82
2024/02/08 10:44:29;;;;;;;34.70;25.10;;;13.90;92.40;;;;;;5012982;28;20563;-81
2024/02/08 10:47:06;;;;;;;39.33;27.97;;;14.00;92.20;;;;;;5006463;28;20219;-81
2024/02/08 10:49:42;;;;;;;39.80;25.60;;;14.10;92.20;;;;;;5008759;28;20212;-81
2024/02/08 10:52:19;;;;;;;41.07;26.73;;;14.20;92.20;;;;;;4998571;28;20208;-82
2024/02/08 10:54:53;;;;;;;42.10;26.63;;;14.20;91.70;;;;;;4996142;28;20212;-82
2024/02/08 11:03:00;;;;;;;39.30;27.00;;;14.30;91.80;;;;;;5016625;28;20227;-82
2024/02/08 11:07:58;;;;;;;35.33;26.47;;;14.40;91.70;;;;;;5017665;28;20224;-82
2024/02/08 11:43:51;;;;;;;41.53;28.63;;;15.20;90.60;;;;;;5059622;28;20559;-81
2024/02/08 11:46:20;;;;;;;37.90;27.57;;;15.30;90.50;;;;;;5119871;28;20294;-82
2024/02/08 11:48:48;;;;;;;42.60;28.03;;;15.30;90.40;;;;;;5119348;28;20222;-81
2024/02/08 11:51:17;;;;;;;40.70;28.00;;;15.40;90.30;;;;;;5119624;28;20672;-81
2024/02/08 11:53:45;;;;;;;41.70;28.70;;;15.50;90.20;;;;;;5051339;28;20222;-81
2024/02/08 11:56:20;;;;;;;38.40;25.80;;;15.60;89.80;;;;;;4993551;28;20220;-82
2024/02/08 11:58:48;;;;;;;37.03;25.90;;;15.60;89.70;;;;;;5006082;28;20202;-81
2024/02/08 12:01:17;;;;;;;44.60;25.87;;;15.70;89.80;;;;;;5024087;28;20635;-82
2024/02/08 12:03:45;;;;;;;35.90;24.27;;;15.70;89.40;;;;;;5017565;28;20264;-82
2024/02/08 12:06:21;;;;;;;35.27;23.70;;;15.80;89.00;;;;;;4999662;28;20209;-82
2024/02/08 12:09:03;;;;;;;40.10;24.20;;;16.00;88.50;;;;;;5014232;28;20310;-82
2024/02/08 12:11:33;;;;;;;35.50;23.00;;;16.00;87.70;;;;;;4997009;28;20201;-82
2024/02/08 12:14:10;;;;;;;36.30;22.83;;;16.10;86.60;;;;;;5009493;28;20208;-82
2024/02/08 12:16:59;;;;;;;34.40;24.70;;;16.10;86.40;;;;;;4988350;28;20648;-82
2024/02/08 12:19:30;;;;;;;29.67;20.70;;;16.20;86.40;;;;;;5016481;28;20207;-82
2024/02/08 12:22:03;;;;;;;34.90;22.17;;;16.30;86.60;;;;;;4999559;28;20306;-83
2024/02/08 12:24:32;;;;;;;32.57;21.37;;;16.30;86.10;;;;;;5037210;28;20636;-82
2024/02/08 12:27:12;;;;;;;32.47;21.57;;;16.40;86.00;;;;;;5119533;28;20221;-82
2024/02/08 12:29:46;;;;;;;28.30;19.73;;;16.50;84.60;;;;;;5112737;28;20609;-82
2024/02/08 12:32:17;;;;;;;34.97;22.37;;;16.50;83.70;;;;;;4987851;28;20575;-82
2024/02/08 12:34:48;;;;;;;33.90;22.03;;;16.50;83.60;;;;;;4982388;28;20210;-82
2024/02/08 12:37:19;;;;;;;35.20;21.87;;;16.60;83.50;;;;;;5014084;28;20217;-82
2024/02/08 12:39:49;;;;;;;26.90;18.87;;;16.60;84.00;;;;;;5015791;28;20193;-82
2024/02/08 12:42:18;;;;;;;28.70;18.40;;;16.60;84.30;;;;;;4995135;28;20205;-82
2024/02/08 12:44:48;;;;;;;32.63;19.13;;;16.60;84.40;;;;;;5013056;28;20208;-82
2024/02/08 12:47:17;;;;;;;26.77;18.67;;;16.70;84.30;;;;;;5077596;28;20197;-82
2024/02/08 12:49:50;;;;;;;28.97;18.00;;;16.70;84.20;;;;;;5117413;28;20302;-82
2024/02/08 12:52:19;;;;;;;24.70;18.70;;;16.80;82.90;;;;;;5050563;28;20209;-82
2024/02/08 12:54:54;;;;;;;27.30;19.60;;;16.80;81.90;;;;;;4995210;28;20208;-83
2024/02/08 12:57:23;;;;;;;27.40;18.03;;;16.70;82.00;;;;;;5028636;28;20233;-81
2024/02/08 13:00:08;;;;;;;30.80;18.33;;;16.60;82.10;;;;;;5020598;28;20289;-82
2024/02/08 13:02:35;;;;;;;31.47;17.60;;;16.50;82.40;;;;;;5018010;28;20221;-82
2024/02/08 13:05:03;;;;;;;26.27;16.90;;;16.50;82.60;;;;;;5029302;28;20293;-82
2024/02/08 13:07:32;;;;;;;22.10;15.93;;;16.50;82.70;;;;;;5001809;28;20235;-82
2024/02/08 13:10:14;;;;;;;26.80;16.50;;;16.40;82.60;;;;;;5014386;28;20276;-82
2024/02/08 13:12:45;;;;;;;26.60;18.17;;;16.40;82.80;;;;;;4997997;28;20205;-82
2024/02/08 13:15:20;;;;;;;28.30;17.57;;;16.30;82.60;;;;;;5011852;28;20204;-82
2024/02/08 13:17:50;;;;;;;29.47;17.53;;;16.30;82.70;;;;;;5001507;28;20213;-82
2024/02/08 13:20:21;;;;;;;27.63;18.77;;;16.20;83.00;;;;;;5027307;28;20212;-82
2024/02/08 13:22:51;;;;;;;28.30;20.30;;;16.20;83.20;;;;;;5021875;28;20217;-82
2024/02/08 13:25:19;;;;;;;26.90;19.23;;;16.20;83.00;;;;;;5017921;28;20204;-82
2024/02/08 13:27:50;;;;;;;34.93;20.47;;;16.20;83.40;;;;;;5014653;28;20238;-82
2024/02/08 13:30:17;;;;;;;23.77;18.13;;;16.30;83.50;;;;;;5009088;28;20200;-82
2024/02/08 13:32:51;;;;;;;27.97;17.10;;;16.30;83.60;;;;;;5005044;28;20298;-82
2024/02/08 13:35:23;;;;;;;27.50;16.90;;;16.40;83.30;;;;;;4994964;28;20200;-82
2024/02/08 13:37:52;;;;;;;29.40;17.73;;;16.40;82.80;;;;;;4992504;28;20204;-82
2024/02/08 13:40:22;;;;;;;25.73;16.97;;;16.40;82.30;;;;;;5015572;28;20219;-84
2024/02/08 13:42:58;;;;;;;24.93;17.50;;;16.30;82.00;;;;;;4995917;28;20217;-81
2024/02/08 13:45:28;;;;;;;22.23;16.30;;;16.30;82.50;;;;;;5013900;28;20209;-81
2024/02/08 13:48:00;;;;;;;21.77;15.77;;;16.30;82.00;;;;;;5022171;28;20273;-82
2024/02/08 13:50:29;;;;;;;24.50;14.77;;;16.30;81.80;;;;;;5016319;28;20195;-82
2024/02/08 13:53:01;;;;;;;21.93;16.07;;;16.20;81.80;;;;;;5003688;28;20212;-82
2024/02/08 13:55:31;;;;;;;21.40;15.30;;;16.20;82.30;;;;;;5004387;28;20218;-81
2024/02/08 13:58:18;;;;;;;21.87;15.20;;;16.10;82.50;;;;;;5016720;28;20233;-81
2024/02/08 14:00:47;;;;;;;23.30;14.50;;;16.10;82.50;;;;;;5019469;28;20222;-82
2024/02/08 14:03:14;;;;;;;25.73;16.77;;;16.00;82.50;;;;;;5012091;28;20235;-83
2024/02/08 14:05:51;;;;;;;22.63;16.77;;;16.00;82.70;;;;;;5020909;28;20207;-81
2024/02/08 14:08:23;;;;;;;27.73;17.27;;;16.00;82.80;;;;;;5001764;28;20223;-82
2024/02/08 14:11:25;;;;;;;24.73;14.67;;;15.90;82.70;;;;;;4994200;28;20567;-82
2024/02/08 14:14:19;;;;;;;24.80;15.77;;;15.90;82.80;;;;;;4997223;28;20193;-82
2024/02/08 14:16:52;;;;;;;21.23;15.40;;;16.00;82.90;;;;;;5017550;28;20226;-83
2024/02/08 14:19:22;;;;;;;18.77;14.97;;;16.00;82.80;;;;;;4981557;28;20244;-81
2024/02/08 14:21:54;;;;;;;25.13;16.50;;;16.00;82.70;;;;;;5027865;28;20220;-82
2024/02/08 14:24:30;;;;;;;28.33;16.73;;;16.00;83.10;;;;;;5003925;28;20207;-82
2024/02/08 14:26:58;;;;;;;23.20;16.43;;;16.00;83.10;;;;;;5024229;28;20245;-81
2024/02/08 14:29:25;;;;;;;24.50;16.33;;;16.00;83.20;;;;;;5019681;28;20219;-81
2024/02/08 14:31:53;;;;;;;26.67;17.40;;;15.90;83.00;;;;;;5036581;28;20291;-81
2024/02/08 14:34:25;;;;;;;26.30;16.10;;;15.90;83.30;;;;;;5035916;28;20203;-83
2024/02/08 14:36:58;;;;;;;26.23;16.20;;;15.90;83.60;;;;;;5003400;28;20269;-82
2024/02/08 14:39:32;;;;;;;25.00;16.27;;;15.90;83.50;;;;;;4981115;28;20201;-82
2024/02/08 14:42:01;;;;;;;25.07;17.03;;;16.00;83.20;;;;;;4980546;28;20204;-82
2024/02/08 14:45:16;;;;;;;25.43;16.37;;;15.90;82.90;;;;;;4981024;28;20219;-82
2024/02/08 14:47:52;;;;;;;25.27;16.27;;;16.00;83.20;;;;;;5010548;28;20288;-83
2024/02/08 14:50:49;;;;;;;24.20;16.50;;;16.00;83.50;;;;;;5011095;28;20733;-83
2024/02/08 14:53:17;;;;;;;24.13;16.73;;;16.00;82.60;;;;;;5000316;28;20196;-81
2024/02/08 14:55:45;;;;;;;26.33;16.00;;;16.00;82.50;;;;;;4981866;28;20217;-81
2024/02/08 15:01:11;;;;;;;21.37;15.10;;;16.00;82.50;;;;;;5084897;28;20554;-82
2024/02/08 15:03:43;;;;;;;23.03;16.63;;;16.00;82.60;;;;;;5083371;28;20226;-81
2024/02/08 15:14:36;;;;;;;23.43;17.63;;;15.80;83.30;;;;;;5098326;28;20202;-81
2024/02/08 15:17:18;;;;;;;25.33;16.40;;;15.70;83.60;;;;;;5098303;28;20220;-82
2024/02/08 15:19:46;;;;;;;27.10;17.27;;;15.60;84.10;;;;;;5082317;28;20205;-81
2024/02/08 15:25:04;;;;;;;28.00;17.40;;;15.50;84.50;;;;;;5098882;28;20197;-82
2024/02/08 15:27:52;;;;;;;26.67;18.13;;;15.50;84.80;;;;;;5098526;28;20271;-81
2024/02/08 15:30:30;;;;;;;29.53;19.17;;;15.40;84.60;;;;;;5081323;28;20224;-82
2024/02/08 15:35:38;;;;;;;32.13;22.10;;;15.40;86.10;;;;;;5097952;28;20551;-83
2024/02/08 15:40:55;;;;;;;35.43;24.47;;;15.30;87.10;;;;;;5098896;28;20194;-82
2024/02/08 15:43:25;;;;;;;41.27;25.50;;;15.20;87.40;;;;;;5081255;28;20208;-82
2024/02/08 15:45:54;;;;;;;39.70;23.97;;;15.20;87.50;;;;;;5099855;28;20591;-83
2024/02/08 15:48:34;;;;;;;32.17;22.97;;;15.10;87.80;;;;;;5098785;28;20240;-82
2024/02/08 15:51:12;;;;;;;33.20;24.27;;;15.10;87.90;;;;;;5081343;28;20284;-82
2024/02/08 15:53:48;;;;;;;42.10;24.37;;;15.00;88.10;;;;;;5098772;28;20565;-82
2024/02/08 15:56:22;;;;;;;33.37;23.03;;;14.90;88.70;;;;;;5095521;28;20200;-83
2024/02/08 15:59:01;;;;;;;34.07;23.30;;;14.80;89.00;;;;;;5015505;28;20195;-82
2024/02/08 16:01:51;;;;;;;35.87;24.70;;;14.80;89.30;;;;;;4999651;28;20207;-82
2024/02/08 16:11:23;;;;;;;44.57;25.73;;;14.50;90.10;;;;;;5118694;28;20508;-81
2024/02/08 16:14:15;;;;;;;36.37;25.50;;;14.50;90.50;;;;;;5118576;28;20198;-81
2024/02/08 16:17:07;;;;;;;39.37;25.50;;;14.40;90.30;;;;;;5054654;28;20237;-81